Decoded Metar for KCXO (CONROE in TX, USA) (IATA:CXO) | Meteo·Mobile Aviation Weather
aviador You're here:

KCXO Decoded Metar

CONROE in TX, USA
Report Time2019-05-22 06:53:00
UTC Time2019-05-22 07:45:01
Flight Rules mvfr MVFR
Wind150° at 07 kt
W.Decomp.*RWY 14: 7.0 kt HW 0.6 kt RCW
RWY 19: 4.9 kt HW 4.9 kt LCW
Visibility9999 m
Phenomena:N/A
Clouds:Broken 017 Hf
Overcast 025 Hf
Expected CloudBase > 800 ft AGL from Temp-Dew spread
Ceiling1,700 ft
Temp26°C (ISA +11)
Dew Point24°C (89% RH)
QNH1007 hPa
Density Alt2,169 ft
Elevation246 ft
Report Wrong Elevation
Raw Report
KCXO 220653Z AUTO 15007KT 7SM BKN017 OVC025 26/24 A2975 RMK AO2
SLP070 T02610239=

Extra information for KCXO:More info

Metar Taf Metar & Taf Last 4 Metars F.Rules Stats Wind Profile Meteogram Temp Stats Airport Information Weather charts Add Link Nearby VenuesMetar ALERT Operation Metar Decoded Social comments

AIRNAV info for KCXO